FAKG weather

Komati Power Station Airport
Komati Power Station, Mpumalanga, South Africa

Public forecast

Using degrees Celsius for public forecast. Weather courtesy of forecast.io.

METAR (pilot weather report)

Report is more than 6 hours old.

Closest report is Ermelo Airport, 37.1 nm (68.8 km) SE. Retrieved 2019/05/20 07:43 UTC (10 hours ago):

FAEO 200743Z 31006KT CAVOK 18/03 Q1028

TAF (pilot weather forecast)

Forecast is more than 12 hours old.

Closest forecast is Ermelo Airport, 37.1 nm (68.8 km) SE. Retrieved 2017/06/05 04:55 UTC (2 years ago):

TAF FAEO 050300Z 0504/0515 09006KT CAVOK TX18/0513ZTN05/0504Z